Time;durP1;ratioP1;P1;durP2;ratioP2;P2;SDS_P1;SDS_P2;PMS_P1;PMS_P2;Temp;Humidity;BMP_temperature;BMP_pressure;BME280_temperature;BME280_humidity;BME280_pressure;Samples;Min_cycle;Max_cycle;Signal;HPM_P1;HPM_P2
2022/02/23 00:02:25;;;;;;;6.17;3.87;;;18.20;86.60;;;;;;1857613;76;21850;-86
2022/02/23 00:04:57;;;;;;;5.55;3.85;;;18.20;86.40;;;;;;1840509;76;21236;-84
2022/02/23 00:07:27;;;;;;;5.87;4.20;;;18.20;87.40;;;;;;1811035;78;21613;-84
2022/02/23 00:09:58;;;;;;;7.08;4.35;;;18.20;86.50;;;;;;1842014;77;21211;-84
2022/02/23 00:12:29;;;;;;;7.40;4.17;;;18.20;86.60;;;;;;1841876;77;21846;-84
2022/02/23 00:15:00;;;;;;;6.05;4.05;;;18.20;86.30;;;;;;1828730;78;21211;-84
2022/02/23 00:17:31;;;;;;;9.88;5.83;;;18.20;86.40;;;;;;1844392;76;21172;-84
2022/02/23 00:20:01;;;;;;;8.55;5.10;;;18.20;86.30;;;;;;1849162;76;21539;-83
2022/02/23 00:22:34;;;;;;;6.83;4.62;;;18.20;86.50;;;;;;1853231;77;21689;-84
2022/02/23 00:25:04;;;;;;;9.28;5.92;;;18.20;86.30;;;;;;1856733;76;21119;-83
2022/02/23 00:27:36;;;;;;;7.45;4.78;;;18.20;86.40;;;;;;1857085;77;21193;-84
2022/02/23 00:30:07;;;;;;;11.25;6.10;;;18.20;86.40;;;;;;1858548;76;21122;-84
2022/02/23 00:32:39;;;;;;;24.63;15.40;;;18.30;86.50;;;;;;1853341;77;21177;-84
2022/02/23 00:35:09;;;;;;;11.53;7.40;;;18.30;86.50;;;;;;1812389;78;21142;-84
2022/02/23 00:37:40;;;;;;;21.20;13.03;;;18.40;86.60;;;;;;1837734;76;21191;-85
2022/02/23 00:40:11;;;;;;;20.27;12.30;;;18.40;86.70;;;;;;1888852;76;21146;-85
2022/02/23 00:42:42;;;;;;;21.68;11.60;;;18.40;86.60;;;;;;1862066;76;21177;-83
2022/02/23 00:45:13;;;;;;;9.55;6.90;;;18.40;86.70;;;;;;1819269;78;21518;-84
2022/02/23 00:47:44;;;;;;;12.73;7.30;;;18.40;86.70;;;;;;1819197;78;21131;-84
2022/02/23 00:50:15;;;;;;;17.65;9.63;;;18.40;86.80;;;;;;1871203;76;21162;-84
2022/02/23 00:52:46;;;;;;;10.50;7.37;;;18.50;86.90;;;;;;1870761;76;21085;-84
2022/02/23 00:55:16;;;;;;;10.98;7.53;;;18.50;86.90;;;;;;1864922;76;21659;-84
2022/02/23 00:57:47;;;;;;;13.38;8.23;;;18.50;86.90;;;;;;1865753;76;21231;-84
2022/02/23 01:00:18;;;;;;;11.93;8.03;;;18.50;87.00;;;;;;1871213;76;21130;-84
2022/02/23 01:02:50;;;;;;;17.37;11.18;;;18.60;86.80;;;;;;1864272;76;21146;-84
2022/02/23 01:05:20;;;;;;;12.85;8.43;;;18.60;86.70;;;;;;1857887;76;21079;-85
2022/02/23 01:07:51;;;;;;;11.63;7.35;;;18.60;86.80;;;;;;1779548;81;21146;-83
2022/02/23 01:10:22;;;;;;;13.38;7.00;;;18.60;86.70;;;;;;1786554;78;21159;-84
2022/02/23 01:12:53;;;;;;;11.60;7.50;;;18.60;86.70;;;;;;1816974;78;21137;-84
2022/02/23 01:15:24;;;;;;;13.78;8.43;;;18.60;86.70;;;;;;1796309;78;21153;-85
2022/02/23 01:17:55;;;;;;;11.45;7.85;;;18.70;86.90;;;;;;1812140;78;21084;-84
2022/02/23 01:20:26;;;;;;;11.93;6.47;;;18.70;86.90;;;;;;1810214;78;21236;-84
2022/02/23 01:22:59;;;;;;;9.35;6.87;;;18.70;86.90;;;;;;1817105;78;21503;-84
2022/02/23 01:25:31;;;;;;;13.70;7.50;;;18.80;87.00;;;;;;1813325;78;21138;-83
2022/02/23 01:28:05;;;;;;;9.40;7.33;;;18.80;87.00;;;;;;1831333;78;21165;-85
2022/02/23 01:30:37;;;;;;;10.75;7.03;;;18.80;86.90;;;;;;1826567;78;21191;-84
2022/02/23 01:33:08;;;;;;;11.38;7.00;;;18.90;86.20;;;;;;1812558;78;21216;-85
2022/02/23 01:35:39;;;;;;;11.22;7.25;;;18.90;86.30;;;;;;1818104;78;21150;-84
2022/02/23 01:38:11;;;;;;;10.93;6.72;;;18.90;86.20;;;;;;1821605;78;21149;-83
2022/02/23 01:40:43;;;;;;;12.80;6.83;;;19.00;86.00;;;;;;1814653;78;21712;-84
2022/02/23 01:43:13;;;;;;;12.15;7.12;;;19.00;86.00;;;;;;1842309;76;21232;-85
2022/02/23 01:45:44;;;;;;;11.28;6.78;;;19.10;85.80;;;;;;1836558;77;21185;-85
2022/02/23 01:48:15;;;;;;;9.40;6.47;;;19.20;85.80;;;;;;1811825;78;21158;-83
2022/02/23 01:50:46;;;;;;;11.38;7.50;;;19.20;85.30;;;;;;1861525;75;21079;-85
2022/02/23 01:53:17;;;;;;;10.53;6.47;;;19.30;85.00;;;;;;1833776;77;21594;-84
2022/02/23 01:55:48;;;;;;;9.15;6.53;;;19.30;83.90;;;;;;1835645;78;21676;-84
2022/02/23 01:58:18;;;;;;;11.33;6.85;;;19.40;83.80;;;;;;1837154;77;21724;-83
2022/02/23 02:00:49;;;;;;;9.70;6.17;;;19.40;83.30;;;;;;1858118;77;21598;-85
2022/02/23 02:03:20;;;;;;;9.78;6.35;;;19.40;82.70;;;;;;1865081;77;21632;-83
2022/02/23 02:05:51;;;;;;;12.60;6.67;;;19.40;82.10;;;;;;1876630;75;21154;-83
2022/02/23 02:08:21;;;;;;;9.08;6.08;;;19.40;82.50;;;;;;1867181;76;21513;-85
2022/02/23 02:10:52;;;;;;;10.28;6.20;;;19.50;82.00;;;;;;1836167;77;21174;-83
2022/02/23 02:13:23;;;;;;;9.38;5.90;;;19.50;81.70;;;;;;1841331;77;21236;-84
2022/02/23 02:15:53;;;;;;;9.28;6.08;;;19.50;81.50;;;;;;1826428;78;21170;-84
2022/02/23 02:18:24;;;;;;;12.63;8.40;;;19.60;82.20;;;;;;1876166;76;21575;-84
2022/02/23 02:20:55;;;;;;;10.00;7.12;;;19.70;80.50;;;;;;1864103;75;21845;-84
2022/02/23 02:23:26;;;;;;;8.08;5.90;;;19.70;80.20;;;;;;1809617;78;21059;-84
2022/02/23 02:25:56;;;;;;;8.23;5.42;;;19.70;79.80;;;;;;1806998;78;21221;-83
2022/02/23 02:28:27;;;;;;;9.35;5.65;;;19.80;80.00;;;;;;1854846;76;21606;-83
2022/02/23 02:30:58;;;;;;;12.43;6.55;;;19.80;80.00;;;;;;1861896;77;21169;-84
2022/02/23 02:33:29;;;;;;;9.65;5.75;;;19.90;79.40;;;;;;1835437;78;21595;-83
2022/02/23 02:36:00;;;;;;;8.70;5.45;;;19.90;79.40;;;;;;1832851;78;21071;-83
2022/02/23 02:38:32;;;;;;;8.18;5.10;;;19.90;79.00;;;;;;1817028;78;21070;-84
2022/02/23 02:41:03;;;;;;;7.55;5.37;;;19.90;79.20;;;;;;1858793;77;21092;-84
2022/02/23 02:43:33;;;;;;;8.95;5.95;;;20.00;79.50;;;;;;1868755;75;21202;-83
2022/02/23 02:46:05;;;;;;;11.83;6.95;;;20.10;79.50;;;;;;1855613;77;21165;-83
2022/02/23 02:48:37;;;;;;;12.55;7.67;;;20.20;79.70;;;;;;1858536;76;21600;-84
2022/02/23 02:51:22;;;;;;;10.88;6.83;;;20.30;79.20;;;;;;1788329;78;21209;-84
2022/02/23 02:54:00;;;;;;;10.95;6.55;;;20.50;78.20;;;;;;1806602;79;21111;-83
2022/02/23 02:56:36;;;;;;;10.78;6.25;;;20.60;78.10;;;;;;1839101;77;21131;-84
2022/02/23 02:59:17;;;;;;;9.20;5.67;;;20.60;77.40;;;;;;1840456;77;21098;-82
2022/02/23 03:01:54;;;;;;;9.38;6.25;;;20.80;77.10;;;;;;1844643;76;21713;-84
2022/02/23 03:04:24;;;;;;;9.13;6.15;;;20.90;76.60;;;;;;1857876;76;21141;-83
2022/02/23 03:06:55;;;;;;;8.03;5.90;;;20.90;76.20;;;;;;1858262;76;21224;-85
2022/02/23 03:09:48;;;;;;;10.60;6.42;;;21.00;76.60;;;;;;1859306;76;21070;-84
2022/02/23 03:12:28;;;;;;;8.88;6.03;;;21.00;76.00;;;;;;1837241;77;21102;-84
2022/02/23 03:14:59;;;;;;;9.65;6.35;;;21.00;76.20;;;;;;1838940;77;21118;-85
2022/02/23 03:17:34;;;;;;;8.80;6.10;;;21.10;76.20;;;;;;1841114;77;21107;-84
2022/02/23 03:20:05;;;;;;;10.00;6.72;;;21.20;75.70;;;;;;1856554;76;21178;-84
2022/02/23 03:22:36;;;;;;;10.75;6.15;;;21.30;75.60;;;;;;1864175;76;21182;-84
2022/02/23 03:25:08;;;;;;;8.38;6.37;;;21.40;75.50;;;;;;1847231;76;21464;-83
2022/02/23 03:27:38;;;;;;;9.58;6.30;;;21.50;75.10;;;;;;1860470;76;21559;-84
2022/02/23 03:30:10;;;;;;;12.30;6.10;;;21.70;75.10;;;;;;1874671;76;21127;-83
2022/02/23 03:32:40;;;;;;;10.70;6.85;;;21.80;73.90;;;;;;1859701;76;21134;-84
2022/02/23 03:35:11;;;;;;;10.43;6.83;;;21.80;74.00;;;;;;1837603;77;21721;-83
2022/02/23 03:37:42;;;;;;;9.73;6.33;;;21.90;74.30;;;;;;1837257;77;21150;-82
2022/02/23 03:40:13;;;;;;;9.20;6.72;;;22.00;73.00;;;;;;1852389;76;21166;-83
2022/02/23 03:42:44;;;;;;;8.23;5.87;;;22.10;73.00;;;;;;1847418;76;21161;-83
2022/02/23 03:45:14;;;;;;;8.18;5.53;;;22.20;72.70;;;;;;1838081;76;21167;-82
2022/02/23 03:47:45;;;;;;;10.50;6.05;;;22.30;72.00;;;;;;1873312;76;21217;-83
2022/02/23 03:50:17;;;;;;;12.90;7.15;;;22.40;71.70;;;;;;1865794;76;21239;-82
2022/02/23 03:52:48;;;;;;;7.95;6.33;;;22.50;71.50;;;;;;1866564;76;21676;-83
2022/02/23 03:55:19;;;;;;;11.28;6.53;;;22.60;71.90;;;;;;1862342;76;21099;-82
2022/02/23 03:57:49;;;;;;;10.05;6.10;;;22.70;73.10;;;;;;1851505;76;21220;-82
2022/02/23 04:00:20;;;;;;;9.78;6.92;;;22.80;70.20;;;;;;1841174;78;21077;-83
2022/02/23 04:02:51;;;;;;;9.88;6.35;;;22.90;70.50;;;;;;1840136;78;21134;-84
2022/02/23 04:05:21;;;;;;;11.20;6.15;;;22.90;69.60;;;;;;1841587;78;21165;-84
2022/02/23 04:07:52;;;;;;;9.05;6.50;;;23.00;69.10;;;;;;1807074;79;21160;-83
2022/02/23 04:10:23;;;;;;;9.45;7.22;;;23.10;69.00;;;;;;1841991;76;21609;-83
2022/02/23 04:12:54;;;;;;;13.05;7.03;;;23.20;68.80;;;;;;1852031;76;21093;-83
2022/02/23 04:15:24;;;;;;;11.03;6.67;;;23.30;69.30;;;;;;1845259;77;21128;-84
2022/02/23 04:17:55;;;;;;;13.45;9.25;;;23.40;68.90;;;;;;1841731;78;21155;-82
2022/02/23 04:20:29;;;;;;;11.28;7.50;;;23.50;67.70;;;;;;1838439;78;21146;-83
2022/02/23 04:22:59;;;;;;;10.48;6.65;;;23.50;67.80;;;;;;1840328;78;21512;-84
2022/02/23 04:25:30;;;;;;;11.93;7.28;;;23.60;67.60;;;;;;1841727;78;21141;-84
2022/02/23 04:28:01;;;;;;;10.50;7.42;;;23.70;68.80;;;;;;1806523;79;21162;-82
2022/02/23 04:30:32;;;;;;;9.50;6.65;;;23.90;66.80;;;;;;1808060;79;21229;-82
2022/02/23 04:33:02;;;;;;;13.60;7.53;;;24.00;66.60;;;;;;1807995;79;21208;-82
2022/02/23 04:35:33;;;;;;;10.35;7.47;;;24.10;66.20;;;;;;1810242;78;21641;-83
2022/02/23 04:38:04;;;;;;;9.83;7.25;;;24.20;66.20;;;;;;1800039;79;21244;-84
2022/02/23 04:40:34;;;;;;;13.08;8.05;;;24.30;65.80;;;;;;1807914;79;21177;-83
2022/02/23 04:43:05;;;;;;;11.30;8.63;;;24.40;66.00;;;;;;1779141;79;21224;-83
2022/02/23 04:45:36;;;;;;;10.82;8.25;;;24.40;65.20;;;;;;1799397;79;21119;-82
2022/02/23 04:48:07;;;;;;;10.28;7.03;;;24.50;64.80;;;;;;1808089;79;21197;-83
2022/02/23 04:50:38;;;;;;;12.70;8.35;;;24.50;64.40;;;;;;1818015;79;21141;-83
2022/02/23 04:53:09;;;;;;;11.48;8.10;;;24.60;64.00;;;;;;1811898;79;21107;-84
2022/02/23 04:55:40;;;;;;;16.17;8.98;;;24.60;64.10;;;;;;1805303;79;21633;-84
2022/02/23 04:58:11;;;;;;;10.45;7.65;;;24.60;63.50;;;;;;1817184;78;21178;-84
2022/02/23 05:00:43;;;;;;;11.97;8.00;;;24.70;63.60;;;;;;1815021;79;21543;-82
2022/02/23 05:03:17;;;;;;;13.28;7.55;;;24.80;63.70;;;;;;1821367;77;21136;-86
2022/02/23 05:05:49;;;;;;;12.82;7.95;;;24.90;62.30;;;;;;1819931;76;21512;-83
2022/02/23 05:08:21;;;;;;;11.55;7.90;;;24.90;64.50;;;;;;1783243;78;21184;-83
2022/02/23 05:10:53;;;;;;;10.43;7.87;;;25.00;63.20;;;;;;1806593;79;21240;-84
2022/02/23 05:13:25;;;;;;;11.45;8.38;;;25.10;63.60;;;;;;1814979;78;21140;-84
2022/02/23 05:15:58;;;;;;;11.53;8.23;;;25.20;62.60;;;;;;1780466;80;21162;-84
2022/02/23 05:18:29;;;;;;;12.55;7.87;;;25.30;62.10;;;;;;1802734;78;21145;-83
2022/02/23 05:21:01;;;;;;;11.35;9.18;;;25.30;62.10;;;;;;1812347;79;21608;-83
2022/02/23 05:23:32;;;;;;;11.95;9.15;;;25.30;61.00;;;;;;1811682;79;21163;-84
2022/02/23 05:26:04;;;;;;;14.68;8.75;;;25.30;60.90;;;;;;1821904;79;21607;-84
2022/02/23 05:28:35;;;;;;;11.33;8.25;;;25.30;61.40;;;;;;1824282;79;21583;-84
2022/02/23 05:31:07;;;;;;;12.70;8.13;;;25.40;61.50;;;;;;1822212;79;21184;-83
2022/02/23 05:33:38;;;;;;;10.88;8.23;;;25.50;61.20;;;;;;1811666;79;21187;-83
2022/02/23 05:36:09;;;;;;;10.10;8.93;;;25.50;60.90;;;;;;1814025;79;21162;-83
2022/02/23 05:38:41;;;;;;;12.35;8.55;;;25.50;60.60;;;;;;1820637;79;21650;-84
2022/02/23 05:41:11;;;;;;;10.88;8.48;;;25.60;60.60;;;;;;1779698;81;21245;-84
2022/02/23 05:43:42;;;;;;;12.73;9.00;;;25.60;61.50;;;;;;1824300;79;21602;-84
2022/02/23 05:46:15;;;;;;;11.38;8.80;;;25.60;60.00;;;;;;1825617;78;21225;-85
2022/02/23 05:48:46;;;;;;;15.63;9.68;;;25.60;59.90;;;;;;1811806;79;21134;-84
2022/02/23 05:51:19;;;;;;;12.35;9.10;;;25.60;60.10;;;;;;1786559;79;21185;-84
2022/02/23 05:53:50;;;;;;;11.78;9.50;;;25.60;60.20;;;;;;1837371;78;21220;-84
2022/02/23 05:56:21;;;;;;;11.97;8.93;;;25.70;59.80;;;;;;1838580;78;22362;-85
2022/02/23 05:58:52;;;;;;;13.58;9.60;;;25.70;59.60;;;;;;1832987;76;21215;-85
2022/02/23 06:01:23;;;;;;;12.98;9.00;;;25.70;60.30;;;;;;1806980;79;21201;-85
2022/02/23 06:03:54;;;;;;;10.58;8.18;;;25.80;60.30;;;;;;1838790;78;21220;-83
2022/02/23 06:06:24;;;;;;;12.82;7.97;;;25.80;60.50;;;;;;1821592;79;21596;-84
2022/02/23 06:08:55;;;;;;;11.20;8.03;;;25.90;59.80;;;;;;1837599;78;21150;-84
2022/02/23 06:11:26;;;;;;;10.15;7.85;;;25.90;59.70;;;;;;1838028;78;21150;-83
2022/02/23 06:13:57;;;;;;;11.38;7.75;;;25.90;59.20;;;;;;1837472;78;21158;-83
2022/02/23 06:16:28;;;;;;;14.85;8.08;;;26.00;59.00;;;;;;1837446;78;21189;-84
2022/02/23 06:18:59;;;;;;;10.13;8.55;;;26.00;58.60;;;;;;1839844;78;21096;-84
2022/02/23 06:21:30;;;;;;;10.58;8.38;;;26.00;58.70;;;;;;1817101;78;21201;-83
2022/02/23 06:24:00;;;;;;;12.00;8.23;;;26.10;59.60;;;;;;1858675;77;21083;-84
2022/02/23 06:26:31;;;;;;;10.75;7.50;;;26.20;59.70;;;;;;1837047;78;21111;-84
2022/02/23 06:29:02;;;;;;;9.38;7.65;;;26.20;59.50;;;;;;1837539;78;21071;-84
2022/02/23 06:31:33;;;;;;;10.68;8.00;;;26.30;59.00;;;;;;1837567;78;21102;-84
2022/02/23 06:34:04;;;;;;;10.65;8.13;;;26.30;58.50;;;;;;1806931;79;21139;-83
2022/02/23 06:36:34;;;;;;;14.35;8.50;;;26.30;59.40;;;;;;1838760;78;21602;-85
2022/02/23 06:39:05;;;;;;;11.70;8.45;;;26.40;58.60;;;;;;1845768;76;21135;-84
2022/02/23 06:41:36;;;;;;;13.50;8.45;;;26.30;58.60;;;;;;1807027;79;21138;-84
2022/02/23 06:44:07;;;;;;;14.65;8.15;;;26.30;58.90;;;;;;1838894;78;21106;-84
2022/02/23 06:46:38;;;;;;;10.78;8.55;;;26.30;58.40;;;;;;1838632;77;21152;-83
2022/02/23 06:49:09;;;;;;;11.12;8.25;;;26.30;58.20;;;;;;1838912;78;21232;-84
2022/02/23 06:51:41;;;;;;;11.80;7.90;;;26.30;58.70;;;;;;1838514;78;21071;-85
2022/02/23 06:54:11;;;;;;;12.28;8.18;;;26.30;59.10;;;;;;1838427;77;21164;-84
2022/02/23 06:56:42;;;;;;;14.03;8.88;;;26.40;59.90;;;;;;1837543;76;21157;-84
2022/02/23 06:59:13;;;;;;;11.80;9.18;;;26.40;58.20;;;;;;1805506;79;21221;-85
2022/02/23 07:01:44;;;;;;;12.23;8.88;;;26.40;58.10;;;;;;1846790;76;21166;-85
2022/02/23 07:04:15;;;;;;;14.25;8.95;;;26.30;58.80;;;;;;1806726;79;21150;-84
2022/02/23 07:06:45;;;;;;;11.83;8.63;;;26.30;58.80;;;;;;1838416;78;21200;-85
2022/02/23 07:09:16;;;;;;;10.85;9.05;;;26.40;59.30;;;;;;1811445;78;21099;-84
2022/02/23 07:11:47;;;;;;;12.60;9.05;;;26.40;59.10;;;;;;1838340;78;21111;-84
2022/02/23 07:14:20;;;;;;;13.43;9.15;;;26.40;59.30;;;;;;1806782;79;21158;-83
2022/02/23 07:16:51;;;;;;;10.80;9.18;;;26.50;59.40;;;;;;1842029;76;21118;-83
2022/02/23 07:19:24;;;;;;;12.68;8.40;;;26.50;59.20;;;;;;1853966;76;21204;-84
2022/02/23 07:21:53;;;;;;;11.68;8.98;;;26.50;59.60;;;;;;1806802;79;21660;-84
2022/02/23 07:24:24;;;;;;;11.90;9.30;;;26.50;59.20;;;;;;1838369;78;22069;-84
2022/02/23 07:26:55;;;;;;;11.55;9.43;;;26.50;58.60;;;;;;1838527;78;21235;-82
2022/02/23 07:29:26;;;;;;;13.35;9.20;;;26.60;59.50;;;;;;1842355;76;21165;-83
2022/02/23 07:31:57;;;;;;;15.55;9.93;;;26.60;58.80;;;;;;1838632;78;21503;-84
2022/02/23 07:34:28;;;;;;;12.28;9.93;;;26.60;59.30;;;;;;1838780;78;21245;-83
2022/02/23 07:36:59;;;;;;;13.70;10.03;;;26.50;58.80;;;;;;1838314;77;21181;-85
2022/02/23 07:39:30;;;;;;;14.30;10.23;;;26.50;59.00;;;;;;1812240;78;21247;-84
2022/02/23 07:42:01;;;;;;;12.85;10.20;;;26.50;58.60;;;;;;1838662;78;21119;-83
2022/02/23 07:44:33;;;;;;;14.38;9.98;;;26.50;59.10;;;;;;1837565;78;21190;-84
2022/02/23 07:47:05;;;;;;;16.70;11.18;;;26.40;59.10;;;;;;1810307;78;21171;-85
2022/02/23 07:49:36;;;;;;;15.23;10.53;;;26.40;58.90;;;;;;1839114;78;21159;-84
2022/02/23 07:52:08;;;;;;;13.15;9.90;;;26.30;59.80;;;;;;1838880;78;21158;-85
2022/02/23 07:54:39;;;;;;;14.05;11.22;;;26.30;59.90;;;;;;1838853;78;21158;-83
2022/02/23 07:57:10;;;;;;;13.78;10.80;;;26.30;59.70;;;;;;1816854;78;21260;-83
2022/02/23 07:59:41;;;;;;;15.10;11.55;;;26.40;59.30;;;;;;1835048;77;21144;-84
2022/02/23 08:02:14;;;;;;;16.62;10.93;;;26.30;59.10;;;;;;1854937;77;21164;-84
2022/02/23 08:04:44;;;;;;;14.23;11.65;;;26.30;59.60;;;;;;1817034;76;21179;-84
2022/02/23 08:07:15;;;;;;;16.02;11.25;;;26.30;59.60;;;;;;1853590;76;21159;-84
2022/02/23 08:09:47;;;;;;;14.15;10.28;;;26.20;59.80;;;;;;1857129;76;21821;-84
2022/02/23 08:12:18;;;;;;;13.58;11.22;;;26.20;60.00;;;;;;1865491;76;21107;-84
2022/02/23 08:14:52;;;;;;;15.43;12.10;;;26.20;60.20;;;;;;1823345;78;21646;-82
2022/02/23 08:19:55;;;;;;;13.62;11.55;;;26.20;60.40;;;;;;1846604;77;21238;-84
2022/02/23 08:22:29;;;;;;;16.77;11.93;;;26.20;60.10;;;;;;1837849;78;21101;-85
2022/02/23 08:24:58;;;;;;;16.62;13.48;;;26.20;60.90;;;;;;1837306;78;21153;-85
2022/02/23 08:27:30;;;;;;;15.70;12.88;;;26.10;60.30;;;;;;1836770;78;21138;-84
2022/02/23 08:30:04;;;;;;;18.92;15.32;;;26.10;61.10;;;;;;1837053;77;21103;-84
2022/02/23 08:32:33;;;;;;;17.20;13.80;;;26.20;61.20;;;;;;1837626;78;21215;-85
2022/02/23 08:35:07;;;;;;;17.12;14.25;;;26.20;60.40;;;;;;1849634;76;21155;-85
2022/02/23 08:40:21;;;;;;;15.43;13.10;;;26.30;60.10;;;;;;1921151;74;21083;-84
2022/02/23 08:42:52;;;;;;;20.08;13.05;;;26.30;59.80;;;;;;1920281;75;22467;-84
2022/02/23 08:45:23;;;;;;;16.60;13.08;;;26.20;60.60;;;;;;1860206;76;21140;-85
2022/02/23 08:47:54;;;;;;;17.40;13.22;;;26.30;60.40;;;;;;1897353;75;21519;-84
2022/02/23 08:50:25;;;;;;;17.42;13.25;;;26.20;60.40;;;;;;1899282;75;22343;-84
2022/02/23 08:52:55;;;;;;;17.70;13.30;;;26.30;60.20;;;;;;1898589;75;21226;-84
2022/02/23 08:55:26;;;;;;;18.37;13.20;;;26.20;59.90;;;;;;1859528;77;21143;-85
2022/02/23 08:57:58;;;;;;;19.12;14.18;;;26.20;60.40;;;;;;1914503;74;21197;-84
2022/02/23 09:00:30;;;;;;;16.65;12.95;;;26.30;59.70;;;;;;1879518;76;21090;-84
2022/02/23 09:03:02;;;;;;;15.88;13.00;;;26.30;60.90;;;;;;1895945;75;21659;-83
2022/02/23 09:05:33;;;;;;;17.98;13.88;;;26.30;60.70;;;;;;1896251;74;21054;-85
2022/02/23 09:08:05;;;;;;;15.10;12.25;;;26.30;60.90;;;;;;1827329;78;21229;-83
2022/02/23 09:10:35;;;;;;;18.07;14.18;;;26.30;60.70;;;;;;1896225;74;21138;-84
2022/02/23 09:13:07;;;;;;;19.85;11.65;;;26.30;60.80;;;;;;1916190;74;21119;-83
2022/02/23 09:15:39;;;;;;;13.62;10.68;;;26.30;60.90;;;;;;1864311;75;21734;-83
2022/02/23 09:18:09;;;;;;;14.68;11.25;;;26.30;60.60;;;;;;1873891;76;21130;-84
2022/02/23 09:20:40;;;;;;;12.80;10.45;;;26.20;61.20;;;;;;1905180;74;21637;-84
2022/02/23 09:23:11;;;;;;;16.25;10.82;;;26.20;61.70;;;;;;1930406;74;21110;-83
2022/02/23 09:25:42;;;;;;;12.82;10.68;;;26.20;61.50;;;;;;1900029;75;21187;-82
2022/02/23 09:28:14;;;;;;;13.85;10.63;;;26.20;61.80;;;;;;1877219;76;21035;-84
2022/02/23 09:30:45;;;;;;;12.68;10.00;;;26.20;61.40;;;;;;1858530;77;21166;-83
2022/02/23 09:33:15;;;;;;;12.85;10.20;;;26.20;62.00;;;;;;1897579;75;21134;-83
2022/02/23 09:35:49;;;;;;;15.75;10.88;;;26.10;61.60;;;;;;1897711;75;21097;-83
2022/02/23 09:38:20;;;;;;;12.68;10.53;;;26.10;62.40;;;;;;1897881;75;21648;-84
2022/02/23 09:40:53;;;;;;;12.85;10.00;;;26.10;61.10;;;;;;1898725;75;21113;-83
2022/02/23 09:43:24;;;;;;;14.63;9.33;;;26.10;61.80;;;;;;1900357;74;21117;-83
2022/02/23 09:45:56;;;;;;;14.20;9.45;;;26.00;61.30;;;;;;1891105;74;21162;-82
2022/02/23 09:48:31;;;;;;;12.15;9.83;;;26.00;61.50;;;;;;1867300;76;21124;-83
2022/02/23 09:51:02;;;;;;;16.23;10.93;;;25.90;61.90;;;;;;1848610;76;21135;-83
2022/02/23 09:53:33;;;;;;;11.88;10.00;;;25.90;61.70;;;;;;1864440;76;21130;-82
2022/02/23 09:56:03;;;;;;;11.90;9.75;;;25.90;61.70;;;;;;1848526;76;21220;-83
2022/02/23 09:58:34;;;;;;;14.65;10.28;;;25.90;61.80;;;;;;1849306;76;21619;-83
2022/02/23 10:01:07;;;;;;;12.85;10.10;;;25.90;62.10;;;;;;1863365;75;21131;-71
2022/02/23 10:03:39;;;;;;;13.90;10.70;;;25.90;62.00;;;;;;1899834;75;21127;-71
2022/02/23 10:06:12;;;;;;;17.55;11.15;;;25.80;62.00;;;;;;1887485;75;21189;-72
2022/02/23 10:08:43;;;;;;;13.65;10.08;;;25.70;61.30;;;;;;1884134;76;21204;-72
2022/02/23 10:11:18;;;;;;;14.33;10.78;;;25.70;62.80;;;;;;1873079;76;21602;-73
2022/02/23 10:13:51;;;;;;;14.87;11.68;;;25.70;61.90;;;;;;1851197;77;21140;-72
2022/02/23 10:16:24;;;;;;;18.07;12.18;;;25.60;61.70;;;;;;1872550;75;21614;-72
2022/02/23 10:19:00;;;;;;;13.68;11.40;;;25.50;61.80;;;;;;1884117;76;21136;-72
2022/02/23 10:21:34;;;;;;;16.30;12.10;;;25.50;61.90;;;;;;1890119;75;21225;-72
2022/02/23 10:24:07;;;;;;;17.48;13.08;;;25.50;61.70;;;;;;1902005;74;21192;-73
2022/02/23 10:26:40;;;;;;;17.92;13.03;;;25.50;62.30;;;;;;1887973;75;21128;-73
2022/02/23 10:29:11;;;;;;;18.27;12.53;;;25.50;62.30;;;;;;1912100;74;21716;-73
2022/02/23 10:31:45;;;;;;;19.92;11.65;;;25.40;61.60;;;;;;1902756;74;22034;-73
2022/02/23 10:34:19;;;;;;;15.43;12.63;;;25.40;61.70;;;;;;1916109;74;21147;-73
2022/02/23 10:36:52;;;;;;;15.88;12.25;;;25.30;62.20;;;;;;1916829;74;21577;-76
2022/02/23 10:39:23;;;;;;;14.40;12.25;;;25.30;62.50;;;;;;1850801;77;21120;-74
2022/02/23 10:41:56;;;;;;;13.93;11.63;;;25.30;62.50;;;;;;1875465;75;21099;-73
2022/02/23 10:44:29;;;;;;;16.82;12.23;;;25.30;62.90;;;;;;1874360;75;21136;-73
2022/02/23 10:47:01;;;;;;;18.00;12.68;;;25.20;62.60;;;;;;1865444;77;21101;-73
2022/02/23 10:49:32;;;;;;;15.63;12.85;;;25.20;62.70;;;;;;1874051;76;21537;-74
2022/02/23 10:52:06;;;;;;;18.12;13.78;;;25.20;62.70;;;;;;1864474;75;21112;-73
2022/02/23 10:54:38;;;;;;;17.25;12.53;;;25.10;62.40;;;;;;1872269;75;21460;-73
2022/02/23 10:57:11;;;;;;;17.45;13.25;;;25.10;62.50;;;;;;1881903;75;21232;-73
2022/02/23 10:59:43;;;;;;;16.40;12.85;;;25.10;62.90;;;;;;1866833;75;21592;-73
2022/02/23 11:02:15;;;;;;;19.95;14.47;;;25.10;63.20;;;;;;1866152;76;21134;-84
2022/02/23 11:04:46;;;;;;;23.12;16.42;;;25.00;63.70;;;;;;1871531;75;21181;-84
2022/02/23 11:07:18;;;;;;;23.25;16.10;;;25.00;63.80;;;;;;1834895;77;21211;-84
2022/02/23 11:09:49;;;;;;;21.23;15.65;;;25.00;64.20;;;;;;1853731;77;21090;-84
2022/02/23 11:12:21;;;;;;;22.05;14.53;;;25.00;64.00;;;;;;1835406;77;21501;-84
2022/02/23 11:14:52;;;;;;;19.30;15.65;;;25.00;64.40;;;;;;1880710;76;21165;-84
2022/02/23 11:17:23;;;;;;;18.95;15.05;;;24.90;64.20;;;;;;1868269;76;21064;-83
2022/02/23 11:19:56;;;;;;;18.92;15.55;;;24.90;63.80;;;;;;1870542;75;21139;-83
2022/02/23 11:22:29;;;;;;;22.45;15.25;;;24.90;63.80;;;;;;1877819;75;21147;-84
2022/02/23 11:25:01;;;;;;;23.92;16.40;;;24.80;63.90;;;;;;1841500;77;21250;-84
2022/02/23 11:27:35;;;;;;;26.57;18.25;;;24.80;63.60;;;;;;1870776;76;21107;-84
2022/02/23 11:30:08;;;;;;;24.65;16.87;;;24.80;64.00;;;;;;1879494;76;21080;-84
2022/02/23 11:32:41;;;;;;;23.60;17.42;;;24.70;64.40;;;;;;1867009;76;21089;-84
2022/02/23 11:35:13;;;;;;;22.25;17.37;;;24.70;64.40;;;;;;1848317;77;21358;-85
2022/02/23 11:37:44;;;;;;;26.95;18.27;;;24.60;64.20;;;;;;1875108;76;21132;-85
2022/02/23 11:40:19;;;;;;;29.98;17.98;;;24.60;64.30;;;;;;1868786;76;21642;-84
2022/02/23 11:42:50;;;;;;;24.67;17.20;;;24.60;64.10;;;;;;1847201;77;21143;-84
2022/02/23 11:45:21;;;;;;;27.42;19.20;;;24.60;64.20;;;;;;1843739;77;21091;-85
2022/02/23 11:47:52;;;;;;;25.10;18.77;;;24.60;64.40;;;;;;1881968;76;21142;-84
2022/02/23 11:50:27;;;;;;;29.95;18.77;;;24.50;64.10;;;;;;1852095;77;21171;-84
2022/02/23 11:52:57;;;;;;;25.97;17.85;;;24.50;64.40;;;;;;1863431;77;21142;-85
2022/02/23 11:55:30;;;;;;;30.43;19.10;;;24.50;64.70;;;;;;1862226;77;21185;-82
2022/02/23 11:58:01;;;;;;;25.52;19.30;;;24.40;65.00;;;;;;1869751;77;21204;-84
2022/02/23 12:00:35;;;;;;;27.35;18.90;;;24.40;66.40;;;;;;1870652;75;21139;-83
2022/02/23 12:03:09;;;;;;;26.37;18.50;;;24.40;65.10;;;;;;1843960;77;21131;-85
2022/02/23 12:05:43;;;;;;;26.85;18.02;;;24.40;65.10;;;;;;1874651;76;21075;-83
2022/02/23 12:08:16;;;;;;;29.27;18.87;;;24.30;65.30;;;;;;1837462;78;21115;-82
2022/02/23 12:10:47;;;;;;;31.23;18.27;;;24.40;65.20;;;;;;1860614;77;21091;-84
2022/02/23 12:13:20;;;;;;;29.15;17.27;;;24.30;65.20;;;;;;1859461;77;21106;-84
2022/02/23 12:15:51;;;;;;;30.00;18.70;;;24.20;65.20;;;;;;1834792;77;21083;-84
2022/02/23 12:18:22;;;;;;;25.50;19.25;;;24.20;65.50;;;;;;1862392;77;21206;-84
2022/02/23 12:20:55;;;;;;;28.73;18.20;;;24.20;65.40;;;;;;1878963;76;21179;-84
2022/02/23 12:23:28;;;;;;;25.20;17.73;;;24.20;65.80;;;;;;1877957;75;21255;-83
2022/02/23 12:26:03;;;;;;;31.10;19.73;;;24.20;65.80;;;;;;1897524;75;21127;-86
2022/02/23 12:28:36;;;;;;;28.75;19.02;;;24.20;66.20;;;;;;1913059;75;21086;-85
2022/02/23 12:31:09;;;;;;;29.80;19.25;;;24.10;65.70;;;;;;1887930;73;21122;-84
2022/02/23 12:33:41;;;;;;;29.02;19.40;;;24.10;66.00;;;;;;1892464;73;21139;-85
2022/02/23 12:36:16;;;;;;;25.75;19.20;;;24.10;66.00;;;;;;1886484;73;21161;-87
2022/02/23 12:38:49;;;;;;;24.15;18.70;;;24.10;66.20;;;;;;1906801;74;21180;-85
2022/02/23 12:41:22;;;;;;;25.32;17.62;;;24.10;66.50;;;;;;1921596;74;21123;-87
2022/02/23 12:43:56;;;;;;;23.80;18.48;;;24.00;66.70;;;;;;1883205;76;21114;-80
2022/02/23 12:46:29;;;;;;;27.13;18.52;;;24.00;66.80;;;;;;1883871;76;21198;-80
2022/02/23 12:49:02;;;;;;;25.50;18.55;;;24.00;67.30;;;;;;1907968;74;21191;-81
2022/02/23 12:51:33;;;;;;;27.82;19.23;;;24.00;67.10;;;;;;1886719;76;21114;-80
2022/02/23 12:54:07;;;;;;;25.55;17.62;;;24.00;67.20;;;;;;1897995;74;21178;-77
2022/02/23 12:56:40;;;;;;;25.50;18.27;;;24.00;67.50;;;;;;1899064;75;21633;-77
2022/02/23 12:59:14;;;;;;;26.85;17.35;;;24.00;67.50;;;;;;1916892;74;21114;-77
2022/02/23 13:01:47;;;;;;;26.12;18.32;;;24.00;67.60;;;;;;1829002;77;21554;-78